AXM6184 WBGG-WBGR
Flight info
| Callsign | AXM6184 |
|---|---|
| Flight time | 0h 44m |
| Altitude | 33000 |
| Route | KIKAK1J KIKAK DCT PILAX G580 SARVO DCT BIPAS BIPAS1E |
| Aircraft | A20N/M-SDE2E3FGHIRWXY/LB1 |
Departure
| Time | 2026-04-18 03:34 |
|---|---|
| Airport | Kuching International Airport (WBGG) |
Arrival
| Time | 2026-04-18 04:18 |
|---|---|
| Airport | Miri Airport (WBGR) |
| Time | Latitude | Longitude | Altitude | Speed | Heading |
|---|---|---|---|---|---|
| 2026-04-18 03:04 | 1.48693 | 110.34315 | 78 ft | 0 kts | 338° |
| 2026-04-18 03:22 | 1.48692 | 110.34315 | 77 ft | 1 kts | 338° |
| 2026-04-18 03:22 | 1.48685 | 110.34318 | 68 ft | 1 kts | 338° |
| 2026-04-18 03:22 | 1.48678 | 110.34321 | 66 ft | 1 kts | 338° |
| 2026-04-18 03:22 | 1.48671 | 110.34324 | 66 ft | 1 kts | 338° |
| 2026-04-18 03:23 | 1.48663 | 110.34327 | 66 ft | 1 kts | 338° |
| 2026-04-18 03:23 | 1.48656 | 110.34329 | 77 ft | 1 kts | 338° |
| 2026-04-18 03:23 | 1.48650 | 110.34332 | 77 ft | 1 kts | 338° |
| 2026-04-18 03:23 | 1.48643 | 110.34334 | 68 ft | 1 kts | 333° |
| 2026-04-18 03:24 | 1.48637 | 110.34338 | 69 ft | 1 kts | 319° |
| 2026-04-18 03:24 | 1.48632 | 110.34342 | 74 ft | 1 kts | 307° |
| 2026-04-18 03:24 | 1.48628 | 110.34348 | 71 ft | 1 kts | 291° |
| 2026-04-18 03:24 | 1.48625 | 110.34355 | 69 ft | 1 kts | 276° |
| 2026-04-18 03:25 | 1.48625 | 110.34363 | 76 ft | 1 kts | 261° |
| 2026-04-18 03:25 | 1.48625 | 110.34365 | 75 ft | 0 kts | 257° |
| 2026-04-18 03:28 | 1.48623 | 110.34360 | 68 ft | 2 kts | 251° |
| 2026-04-18 03:28 | 1.48611 | 110.34326 | 70 ft | 9 kts | 250° |
| 2026-04-18 03:28 | 1.48584 | 110.34252 | 71 ft | 13 kts | 247° |
| 2026-04-18 03:29 | 1.48552 | 110.34174 | 73 ft | 11 kts | 247° |
| 2026-04-18 03:29 | 1.48518 | 110.34105 | 72 ft | 10 kts | 229° |
| 2026-04-18 03:29 | 1.48458 | 110.34070 | 70 ft | 10 kts | 220° |
| 2026-04-18 03:29 | 1.48414 | 110.34019 | 72 ft | 9 kts | 243° |
| 2026-04-18 03:30 | 1.48386 | 110.33956 | 71 ft | 11 kts | 246° |
| 2026-04-18 03:30 | 1.48359 | 110.33895 | 78 ft | 12 kts | 246° |
| 2026-04-18 03:30 | 1.48322 | 110.33812 | 72 ft | 12 kts | 246° |
| 2026-04-18 03:30 | 1.48266 | 110.33789 | 83 ft | 6 kts | 162° |
| 2026-04-18 03:31 | 1.48256 | 110.33793 | 85 ft | 0 kts | 159° |
| 2026-04-18 03:31 | 1.48253 | 110.33794 | 85 ft | 5 kts | 159° |
| 2026-04-18 03:31 | 1.48237 | 110.33800 | 88 ft | 0 kts | 159° |
| 2026-04-18 03:32 | 1.48202 | 110.33814 | 92 ft | 6 kts | 159° |
| 2026-04-18 03:32 | 1.48172 | 110.33834 | 90 ft | 5 kts | 129° |
| 2026-04-18 03:32 | 1.48171 | 110.33868 | 90 ft | 6 kts | 88° |
| 2026-04-18 03:32 | 1.48173 | 110.33875 | 93 ft | 0 kts | 74° |
| 2026-04-18 03:33 | 1.48174 | 110.33875 | 93 ft | 0 kts | 74° |
| 2026-04-18 03:33 | 1.48189 | 110.33918 | 93 ft | 30 kts | 68° |
| 2026-04-18 03:33 | 1.48349 | 110.34319 | 92 ft | 91 kts | 68° |
| 2026-04-18 03:33 | 1.48640 | 110.35051 | 74 ft | 137 kts | 69° |
| 2026-04-18 03:34 | 1.48986 | 110.36006 | 388 ft | 149 kts | 70° |
| 2026-04-18 03:34 | 1.49316 | 110.37012 | 874 ft | 157 kts | 71° |
| 2026-04-18 03:34 | 1.49658 | 110.38038 | 1474 ft | 151 kts | 68° |
| 2026-04-18 03:34 | 1.49986 | 110.38831 | 1897 ft | 153 kts | 65° |
| 2026-04-18 03:35 | 1.50629 | 110.39727 | 2137 ft | 169 kts | 44° |
| 2026-04-18 03:35 | 1.51502 | 110.40616 | 2438 ft | 189 kts | 48° |
| 2026-04-18 03:35 | 1.52375 | 110.41628 | 2693 ft | 215 kts | 49° |
| 2026-04-18 03:35 | 1.53319 | 110.42758 | 3090 ft | 235 kts | 50° |
| 2026-04-18 03:36 | 1.54225 | 110.43833 | 3432 ft | 252 kts | 49° |
| 2026-04-18 03:36 | 1.55415 | 110.45223 | 4033 ft | 264 kts | 49° |
| 2026-04-18 03:36 | 1.56489 | 110.46465 | 4712 ft | 268 kts | 48° |
| 2026-04-18 03:36 | 1.57681 | 110.47837 | 5460 ft | 273 kts | 48° |
| 2026-04-18 03:37 | 1.58822 | 110.49149 | 6164 ft | 277 kts | 48° |
| 2026-04-18 03:37 | 1.59984 | 110.50483 | 6817 ft | 282 kts | 48° |
| 2026-04-18 03:37 | 1.61229 | 110.51913 | 7466 ft | 287 kts | 48° |
| 2026-04-18 03:37 | 1.62551 | 110.53432 | 8143 ft | 292 kts | 48° |
| 2026-04-18 03:38 | 1.63903 | 110.54984 | 8802 ft | 298 kts | 48° |
| 2026-04-18 03:38 | 1.65272 | 110.56557 | 9526 ft | 302 kts | 48° |
| 2026-04-18 03:38 | 1.66455 | 110.57917 | 10098 ft | 305 kts | 48° |
| 2026-04-18 03:38 | 1.67734 | 110.59387 | 10404 ft | 321 kts | 48° |
| 2026-04-18 03:39 | 1.69306 | 110.61191 | 10594 ft | 342 kts | 48° |
| 2026-04-18 03:39 | 1.70907 | 110.63030 | 10876 ft | 356 kts | 48° |
| 2026-04-18 03:39 | 1.72537 | 110.64904 | 11480 ft | 359 kts | 48° |
| 2026-04-18 03:39 | 1.74181 | 110.66795 | 12103 ft | 362 kts | 48° |
| 2026-04-18 03:40 | 1.75837 | 110.68700 | 12732 ft | 365 kts | 48° |
| 2026-04-18 03:40 | 1.77262 | 110.70340 | 13212 ft | 368 kts | 48° |
| 2026-04-18 03:40 | 1.78778 | 110.72082 | 13757 ft | 371 kts | 48° |
| 2026-04-18 03:40 | 1.80475 | 110.74034 | 14278 ft | 373 kts | 48° |
| 2026-04-18 03:41 | 1.82183 | 110.75997 | 14804 ft | 376 kts | 48° |
| 2026-04-18 03:41 | 1.83905 | 110.77976 | 15327 ft | 378 kts | 48° |
| 2026-04-18 03:41 | 1.85624 | 110.79973 | 15848 ft | 381 kts | 50° |
| 2026-04-18 03:41 | 1.87253 | 110.82076 | 16358 ft | 383 kts | 51° |
| 2026-04-18 03:42 | 1.88886 | 110.84189 | 16844 ft | 386 kts | 51° |
| 2026-04-18 03:42 | 1.90535 | 110.86319 | 17346 ft | 388 kts | 51° |
| 2026-04-18 03:42 | 1.92192 | 110.88456 | 17866 ft | 390 kts | 51° |
| 2026-04-18 03:42 | 1.93750 | 110.90466 | 18319 ft | 391 kts | 51° |
| 2026-04-18 03:43 | 1.95422 | 110.92622 | 18686 ft | 395 kts | 51° |
| 2026-04-18 03:43 | 1.96938 | 110.94578 | 19026 ft | 398 kts | 51° |
| 2026-04-18 03:43 | 1.98640 | 110.96774 | 19406 ft | 401 kts | 51° |
| 2026-04-18 03:43 | 2.00352 | 110.98983 | 19785 ft | 404 kts | 51° |
| 2026-04-18 03:44 | 2.02079 | 111.01213 | 20159 ft | 407 kts | 51° |
| 2026-04-18 03:44 | 2.03817 | 111.03456 | 20524 ft | 410 kts | 52° |
| 2026-04-18 03:44 | 2.05570 | 111.05718 | 20883 ft | 413 kts | 52° |
| 2026-04-18 03:44 | 2.07332 | 111.07994 | 21234 ft | 416 kts | 52° |
| 2026-04-18 03:45 | 2.09110 | 111.10287 | 21615 ft | 418 kts | 52° |
| 2026-04-18 03:45 | 2.10894 | 111.12590 | 21982 ft | 421 kts | 52° |
| 2026-04-18 03:45 | 2.12566 | 111.14749 | 22298 ft | 424 kts | 52° |
| 2026-04-18 03:45 | 2.14376 | 111.17084 | 22646 ft | 426 kts | 52° |
| 2026-04-18 03:46 | 2.16196 | 111.19434 | 23010 ft | 429 kts | 52° |
| 2026-04-18 03:46 | 2.18028 | 111.21800 | 23336 ft | 432 kts | 52° |
| 2026-04-18 03:46 | 2.19871 | 111.24180 | 23650 ft | 434 kts | 52° |
| 2026-04-18 03:46 | 2.21721 | 111.26568 | 23966 ft | 435 kts | 52° |
| 2026-04-18 03:47 | 2.23577 | 111.28965 | 24271 ft | 437 kts | 52° |
| 2026-04-18 03:47 | 2.25441 | 111.31372 | 24569 ft | 438 kts | 52° |
| 2026-04-18 03:47 | 2.27160 | 111.33592 | 24831 ft | 440 kts | 52° |
| 2026-04-18 03:47 | 2.29040 | 111.36019 | 25119 ft | 442 kts | 52° |
| 2026-04-18 03:48 | 2.30899 | 111.38418 | 25401 ft | 443 kts | 51° |
| 2026-04-18 03:48 | 2.32940 | 111.40791 | 25667 ft | 445 kts | 47° |
| 2026-04-18 03:48 | 2.34984 | 111.43059 | 25948 ft | 446 kts | 47° |
| 2026-04-18 03:48 | 2.37060 | 111.45369 | 26199 ft | 448 kts | 47° |
| 2026-04-18 03:49 | 2.39143 | 111.47690 | 26471 ft | 449 kts | 47° |
| 2026-04-18 03:49 | 2.41232 | 111.50019 | 26728 ft | 450 kts | 47° |
| 2026-04-18 03:49 | 2.43328 | 111.52356 | 26977 ft | 452 kts | 47° |
| 2026-04-18 03:49 | 2.45355 | 111.54615 | 27220 ft | 453 kts | 47° |
| 2026-04-18 03:50 | 2.47458 | 111.56959 | 27460 ft | 455 kts | 47° |
| 2026-04-18 03:50 | 2.49398 | 111.59121 | 27672 ft | 456 kts | 47° |
| 2026-04-18 03:50 | 2.51519 | 111.61485 | 27912 ft | 457 kts | 47° |
| 2026-04-18 03:50 | 2.53620 | 111.63827 | 28127 ft | 459 kts | 47° |
| 2026-04-18 03:51 | 2.55782 | 111.66237 | 28362 ft | 460 kts | 47° |
| 2026-04-18 03:51 | 2.57896 | 111.68593 | 28580 ft | 462 kts | 47° |
| 2026-04-18 03:51 | 2.60043 | 111.70988 | 28787 ft | 463 kts | 47° |
| 2026-04-18 03:51 | 2.62197 | 111.73389 | 28990 ft | 465 kts | 47° |
| 2026-04-18 03:52 | 2.64358 | 111.75798 | 29205 ft | 466 kts | 47° |
| 2026-04-18 03:52 | 2.66523 | 111.78213 | 29397 ft | 467 kts | 47° |
| 2026-04-18 03:52 | 2.68695 | 111.80635 | 29607 ft | 468 kts | 46° |
| 2026-04-18 03:52 | 2.70882 | 111.83073 | 29809 ft | 470 kts | 47° |
| 2026-04-18 03:53 | 2.73067 | 111.85509 | 30000 ft | 471 kts | 47° |
| 2026-04-18 03:53 | 2.75259 | 111.87955 | 30184 ft | 472 kts | 46° |
| 2026-04-18 03:53 | 2.77452 | 111.90401 | 30382 ft | 473 kts | 46° |
| 2026-04-18 03:53 | 2.79648 | 111.92850 | 30558 ft | 474 kts | 47° |
| 2026-04-18 03:54 | 2.81851 | 111.95308 | 30749 ft | 475 kts | 47° |
| 2026-04-18 03:54 | 2.83871 | 111.97561 | 30924 ft | 476 kts | 47° |
| 2026-04-18 03:54 | 2.86076 | 112.00021 | 31171 ft | 475 kts | 47° |
| 2026-04-18 03:54 | 2.88281 | 112.02485 | 31428 ft | 474 kts | 47° |
| 2026-04-18 03:55 | 2.90315 | 112.05077 | 31676 ft | 474 kts | 54° |
| 2026-04-18 03:55 | 2.92174 | 112.07805 | 31929 ft | 474 kts | 54° |
| 2026-04-18 03:55 | 2.94032 | 112.10520 | 32148 ft | 473 kts | 54° |
| 2026-04-18 03:55 | 2.95898 | 112.13238 | 32314 ft | 474 kts | 54° |
| 2026-04-18 03:56 | 2.99521 | 112.18510 | 32393 ft | 482 kts | 54° |
| 2026-04-18 03:56 | 3.03312 | 112.24029 | 32460 ft | 487 kts | 54° |
| 2026-04-18 03:57 | 3.09099 | 112.32461 | 32694 ft | 488 kts | 54° |
| 2026-04-18 03:57 | 3.10996 | 112.35227 | 32820 ft | 475 kts | 54° |
| 2026-04-18 03:58 | 3.12717 | 112.37738 | 32901 ft | 466 kts | 54° |
| 2026-04-18 03:58 | 3.16287 | 112.42939 | 32916 ft | 471 kts | 54° |
| 2026-04-18 03:59 | 3.19990 | 112.48336 | 32857 ft | 470 kts | 54° |
| 2026-04-18 03:59 | 3.21858 | 112.51058 | 32625 ft | 479 kts | 54° |
| 2026-04-18 03:59 | 3.23762 | 112.53833 | 32383 ft | 488 kts | 54° |
| 2026-04-18 03:59 | 3.25685 | 112.56636 | 32145 ft | 490 kts | 54° |
| 2026-04-18 04:00 | 3.27446 | 112.59204 | 31924 ft | 490 kts | 54° |
| 2026-04-18 04:00 | 3.29377 | 112.62019 | 31458 ft | 490 kts | 54° |
| 2026-04-18 04:00 | 3.31235 | 112.64730 | 30918 ft | 488 kts | 54° |
| 2026-04-18 04:00 | 3.32938 | 112.67215 | 30369 ft | 485 kts | 54° |
| 2026-04-18 04:01 | 3.33899 | 112.68617 | 30098 ft | 482 kts | 54° |
| 2026-04-18 04:01 | 3.35475 | 112.70916 | 29543 ft | 478 kts | 54° |
| 2026-04-18 04:01 | 3.37155 | 112.73367 | 28748 ft | 478 kts | 54° |
| 2026-04-18 04:01 | 3.38856 | 112.75847 | 27921 ft | 481 kts | 54° |
| 2026-04-18 04:02 | 3.40754 | 112.78615 | 27366 ft | 484 kts | 54° |
| 2026-04-18 04:02 | 3.43087 | 112.82020 | 26726 ft | 484 kts | 54° |
| 2026-04-18 04:02 | 3.44633 | 112.84274 | 26331 ft | 479 kts | 54° |
| 2026-04-18 04:02 | 3.45716 | 112.85789 | 25998 ft | 476 kts | 52° |
| 2026-04-18 04:03 | 3.47598 | 112.88287 | 25355 ft | 473 kts | 51° |
| 2026-04-18 04:03 | 3.49574 | 112.90850 | 24705 ft | 470 kts | 51° |
| 2026-04-18 04:03 | 3.51368 | 112.93178 | 24119 ft | 467 kts | 51° |
| 2026-04-18 04:03 | 3.53357 | 112.95779 | 23452 ft | 463 kts | 52° |
| 2026-04-18 04:04 | 3.55287 | 112.98320 | 22570 ft | 468 kts | 52° |
| 2026-04-18 04:04 | 3.57196 | 113.00840 | 22058 ft | 486 kts | 52° |
| 2026-04-18 04:04 | 3.58964 | 113.03180 | 21533 ft | 489 kts | 52° |
| 2026-04-18 04:04 | 3.60782 | 113.05588 | 21084 ft | 481 kts | 52° |
| 2026-04-18 04:05 | 3.62709 | 113.08142 | 20451 ft | 474 kts | 52° |
| 2026-04-18 04:05 | 3.64683 | 113.10759 | 19739 ft | 468 kts | 52° |
| 2026-04-18 04:05 | 3.66522 | 113.13195 | 19082 ft | 462 kts | 52° |
| 2026-04-18 04:05 | 3.68453 | 113.15755 | 18393 ft | 456 kts | 51° |
| 2026-04-18 04:06 | 3.70241 | 113.18122 | 17713 ft | 450 kts | 51° |
| 2026-04-18 04:06 | 3.71867 | 113.20277 | 17198 ft | 446 kts | 51° |
| 2026-04-18 04:06 | 3.73725 | 113.22739 | 16580 ft | 447 kts | 51° |
| 2026-04-18 04:06 | 3.75277 | 113.24795 | 16134 ft | 443 kts | 51° |
| 2026-04-18 04:07 | 3.76908 | 113.26957 | 15535 ft | 439 kts | 51° |
| 2026-04-18 04:07 | 3.78763 | 113.29414 | 14865 ft | 433 kts | 52° |
| 2026-04-18 04:07 | 3.80570 | 113.31809 | 14250 ft | 431 kts | 52° |
| 2026-04-18 04:07 | 3.82349 | 113.34167 | 13678 ft | 428 kts | 52° |
| 2026-04-18 04:08 | 3.84019 | 113.36381 | 13041 ft | 423 kts | 52° |
| 2026-04-18 04:08 | 3.85542 | 113.38400 | 12534 ft | 421 kts | 52° |
| 2026-04-18 04:08 | 3.87176 | 113.40566 | 12012 ft | 420 kts | 52° |
| 2026-04-18 04:08 | 3.88748 | 113.42649 | 11537 ft | 417 kts | 52° |
| 2026-04-18 04:09 | 3.90446 | 113.44977 | 10933 ft | 412 kts | 56° |
| 2026-04-18 04:09 | 3.91614 | 113.47008 | 10456 ft | 407 kts | 63° |
| 2026-04-18 04:09 | 3.92718 | 113.49596 | 9991 ft | 401 kts | 68° |
| 2026-04-18 04:09 | 3.93661 | 113.51964 | 9834 ft | 407 kts | 68° |
| 2026-04-18 04:10 | 3.94710 | 113.54565 | 9711 ft | 407 kts | 68° |
| 2026-04-18 04:10 | 3.95772 | 113.57188 | 9463 ft | 407 kts | 68° |
| 2026-04-18 04:10 | 3.96830 | 113.59801 | 8931 ft | 403 kts | 68° |
| 2026-04-18 04:10 | 3.97815 | 113.62237 | 8451 ft | 394 kts | 68° |
| 2026-04-18 04:11 | 3.98839 | 113.64773 | 7951 ft | 392 kts | 68° |
| 2026-04-18 04:11 | 3.99748 | 113.67025 | 7620 ft | 386 kts | 68° |
| 2026-04-18 04:11 | 4.00728 | 113.69452 | 7383 ft | 362 kts | 68° |
| 2026-04-18 04:11 | 4.01575 | 113.71554 | 7176 ft | 341 kts | 68° |
| 2026-04-18 04:12 | 4.02368 | 113.73519 | 6991 ft | 321 kts | 68° |
| 2026-04-18 04:12 | 4.03181 | 113.75535 | 6724 ft | 305 kts | 68° |
| 2026-04-18 04:12 | 4.03812 | 113.77101 | 6362 ft | 299 kts | 68° |
| 2026-04-18 04:12 | 4.04570 | 113.78977 | 5871 ft | 292 kts | 68° |
| 2026-04-18 04:13 | 4.05324 | 113.80846 | 5389 ft | 286 kts | 68° |
| 2026-04-18 04:13 | 4.06052 | 113.82653 | 4913 ft | 281 kts | 68° |
| 2026-04-18 04:13 | 4.06713 | 113.84293 | 4466 ft | 277 kts | 68° |
| 2026-04-18 04:13 | 4.07397 | 113.85905 | 4131 ft | 269 kts | 61° |
| 2026-04-18 04:14 | 4.08532 | 113.87311 | 4013 ft | 260 kts | 40° |
| 2026-04-18 04:14 | 4.09569 | 113.88054 | 3943 ft | 270 kts | 32° |
| 2026-04-18 04:14 | 4.11230 | 113.88925 | 3825 ft | 267 kts | 25° |
| 2026-04-18 04:14 | 4.12753 | 113.89610 | 3726 ft | 267 kts | 25° |
| 2026-04-18 04:15 | 4.14282 | 113.90327 | 3477 ft | 272 kts | 25° |
| 2026-04-18 04:15 | 4.15985 | 113.91119 | 3168 ft | 268 kts | 26° |
| 2026-04-18 04:15 | 4.17536 | 113.91843 | 2881 ft | 266 kts | 25° |
| 2026-04-18 04:15 | 4.19211 | 113.92625 | 2531 ft | 265 kts | 25° |
| 2026-04-18 04:16 | 4.20881 | 113.93403 | 2191 ft | 263 kts | 25° |
| 2026-04-18 04:16 | 4.22535 | 113.94177 | 1858 ft | 263 kts | 25° |
| 2026-04-18 04:16 | 4.23881 | 113.94803 | 1582 ft | 261 kts | 25° |
| 2026-04-18 04:16 | 4.25496 | 113.95558 | 1247 ft | 252 kts | 25° |
| 2026-04-18 04:17 | 4.27063 | 113.96287 | 929 ft | 241 kts | 24° |
| 2026-04-18 04:17 | 4.28515 | 113.96964 | 651 ft | 221 kts | 26° |
| 2026-04-18 04:17 | 4.29860 | 113.97591 | 414 ft | 205 kts | 26° |
| 2026-04-18 04:17 | 4.30983 | 113.98119 | 156 ft | 188 kts | 26° |
| 2026-04-18 04:18 | 4.32085 | 113.98643 | 63 ft | 157 kts | 24° |
| 2026-04-18 04:18 | 4.32860 | 113.98995 | 64 ft | 70 kts | 25° |
| 2026-04-18 04:18 | 4.33136 | 113.99106 | 59 ft | 22 kts | 22° |
| 2026-04-18 04:18 | 4.33253 | 113.99157 | 58 ft | 20 kts | 24° |
| 2026-04-18 04:19 | 4.33362 | 113.99188 | 58 ft | 11 kts | 47° |
| 2026-04-18 04:19 | 4.33331 | 113.99218 | 58 ft | 7 kts | 214° |
| 2026-04-18 04:19 | 4.33278 | 113.99189 | 59 ft | 10 kts | 204° |
| 2026-04-18 04:19 | 4.33205 | 113.99157 | 65 ft | 12 kts | 204° |
| 2026-04-18 04:20 | 4.33132 | 113.99123 | 63 ft | 13 kts | 204° |
| 2026-04-18 04:20 | 4.33047 | 113.99085 | 63 ft | 16 kts | 204° |
| 2026-04-18 04:20 | 4.32950 | 113.99041 | 64 ft | 18 kts | 210° |
| 2026-04-18 04:20 | 4.32848 | 113.98989 | 63 ft | 17 kts | 207° |
| 2026-04-18 04:21 | 4.32803 | 113.98893 | 69 ft | 16 kts | 287° |
| 2026-04-18 04:21 | 4.32823 | 113.98794 | 60 ft | 14 kts | 246° |
| 2026-04-18 04:21 | 4.32750 | 113.98748 | 60 ft | 15 kts | 205° |
| 2026-04-18 04:21 | 4.32647 | 113.98702 | 63 ft | 17 kts | 204° |
| 2026-04-18 04:22 | 4.32545 | 113.98652 | 58 ft | 17 kts | 209° |
| 2026-04-18 04:22 | 4.32470 | 113.98606 | 60 ft | 8 kts | 228° |
| 2026-04-18 04:22 | 4.32469 | 113.98550 | 57 ft | 9 kts | 279° |
| 2026-04-18 04:22 | 4.32445 | 113.98514 | 59 ft | 5 kts | 211° |
| 2026-04-18 04:23 | 4.32417 | 113.98496 | 57 ft | 4 kts | 212° |
| 2026-04-18 04:23 | 4.32397 | 113.98487 | 58 ft | 3 kts | 205° |
| 2026-04-18 04:23 | 4.32381 | 113.98479 | 62 ft | 2 kts | 205° |
| 2026-04-18 04:23 | 4.32374 | 113.98475 | 57 ft | 1 kts | 208° |
| 2026-04-18 04:24 | 4.32356 | 113.98459 | 58 ft | 4 kts | 240° |
| 2026-04-18 04:24 | 4.32361 | 113.98434 | 59 ft | 4 kts | 287° |
| 2026-04-18 04:24 | 4.32370 | 113.98416 | 58 ft | 3 kts | 296° |
| 2026-04-18 04:24 | 4.32377 | 113.98402 | 57 ft | 2 kts | 296° |
| 2026-04-18 04:25 | 4.32378 | 113.98400 | 57 ft | 0 kts | 296° |